• Join FlightAware (Why Join?)
  • Login
  • US Flag 
10:06AM EDT


 

Airport Tracker/Info


-or-


 

Live Flight TrackerFlight Track Log ✈ N884FT ✈ 03-Mar-2014 ✈ KBCT - KMLB

Flight Track Log - Related Links

Times and Time Zones

All times are in EST time to prevent confusion due to time zone crossing. See the N884FT flight status page for this flight to view local times or setup timezone preferences in your user account.

Time Position Orientation Groundspeed Altitude Reporting Facility
EST Latitude Longitude Course Direction KTS MPH feet Rate Location/Type
11:08PM 26.6162 -80.1808 345° North  Level Estimated
11:09PM 26.6558 -80.1930 345° North  Level Estimated
11:10PM 26.6954 -80.2052 345° North  Level Estimated
11:11PM 26.7350 -80.2175 345° North  Level Estimated
11:12PM 26.7747 -80.2297 345° North  Level Estimated
11:13PM 26.8143 -80.2419 345° North  Level Estimated
11:14PM 26.8539 -80.2542 345° North  Level Estimated
11:15PM 26.8935 -80.2664 345° North  Level Estimated
11:16PM 26.9331 -80.2787 345° North  Level Estimated
11:17PM 26.9727 -80.2910 345° North  Level Estimated
11:18PM 27.0123 -80.3033 345° North  Level Estimated
11:18PM 26.9364 -80.2794 339° North 146 168 5,000  Level Miami Center
11:19PM 27.0519 -80.3156 345° North  Level Estimated
11:19PM 26.9694 -80.2922 341° North 146 168 5,000  Level Miami Center
11:20PM 27.0915 -80.3279 345° North  Level Estimated
11:20PM 27.0086 -80.3097 338° Northwest 152 175 5,000  Level Miami Center
11:21PM 27.1311 -80.3402 345° North  Level Estimated
11:21PM 27.0500 -80.3272 339° North 144 166 5,000  Level Miami Center
11:22PM 27.0894 -80.3422 341° North 144 166 5,000  Level Miami Center
11:23PM 27.1286 -80.3575 341° North 144 166 5,000  Level Miami Center
11:24PM 27.1639 -80.3725 339° North 149 171 5,000  Level Miami Center
11:25PM 27.2050 -80.3900 339° North 149 171 5,000  Level Miami Center
11:26PM 27.2422 -80.4053 340° North 149 171 5,000  Level Miami Center
11:27PM 27.2794 -80.4206 340° North 149 171 5,000  Level Miami Center
11:28PM 27.3147 -80.4333 342° North 149 171 5,000  Level Miami Center
11:29PM 27.3539 -80.4486 341° North 149 171 5,000  Level Miami Center
11:30PM 27.3997 -80.4592 348° North 149 171 5,000  Level Miami Center
11:31PM 27.4392 -80.4628 355° North 144 166 5,000  Level Miami Center
11:32PM 27.4808 -80.4664 356° North 144 166 5,000  Level Miami Center
11:33PM 27.5206 -80.4725 352° North 144 166 5,000 -180 Level Miami Center
11:34PM 27.5664 -80.4714 North 144 166 4,700 -420 Descending Miami Center
11:35PM 27.6125 -80.4658 North 155 178 4,200 -480 Descending Miami Center
11:36PM 27.6606 -80.4581 North 162 186 3,800 -480 Descending Miami Center
11:37PM 27.7047 -80.4500 North 167 192 3,300 -300 Descending Miami Center
11:39PM 27.8000 -80.4333 North 154 177 3,000 -120 Descending Orlando TRACON
11:40PM 27.8500 -80.4500 344° North 156 180 3,000 -60 Level Orlando TRACON
11:41PM 27.8833 -80.4500 360° North 123 142 2,900 -60 Descending Orlando TRACON
11:42PM 27.9167 -80.4500 360° North 119 137 2,900  Level Orlando TRACON
11:43PM 27.9500 -80.4667 336° Northwest 118 136 2,900  Level Orlando TRACON
11:44PM 27.9833 -80.4667 360° North 130 150 2,900  Level Orlando TRACON
11:45PM 28.0167 -80.4667 360° North 132 152 3,000  Climbing Orlando TRACON
11:46PM 28.0500 -80.4500 24° Northeast 137 158 3,000 -60 Level Orlando TRACON
11:47PM 28.0667 -80.4000 69° East 136 157 2,900 -240 Descending Orlando TRACON
11:48PM 28.1000 -80.4000 360° North 135 155 2,600 -420 Descending Orlando TRACON
11:49PM 28.1167 -80.4333 300° West 129 148 2,200 -480 Descending Orlando TRACON
11:50PM 28.1167 -80.4667 270° West 117 135 1,800 -300 Descending Orlando TRACON
11:51PM 28.1167 -80.5000 270° West 111 128 1,600 -180 Descending Orlando TRACON
11:52PM 28.1000 -80.5333 240° Southwest 98 113 1,500 -120 Descending Orlando TRACON
11:53PM 28.1000 -80.5667 270° West 88 101 1,400 -300 Descending Orlando TRACON
11:54PM 28.1000 -80.5833 270° West 89 102 900 -540 Descending Orlando TRACON
11:55PM 28.1000 -80.6167 270° West 83 96 400 -540 Descending Orlando TRACON